Terminal Aerodrome Forecast
Issued by NWS

Home | Current Version | Previous Version | Text Only | Print | Product List | Glossary On
Versions: 1 2 3 4 5 6 7 8 9 10 11 12 13 14 15 16 17 18 19
000
FTUS41 KRLX 271133
TAFCKB
TAF
KCKB 271133Z 2712/2812 00000KT P6SM BKN040
     FM271900 VRB03KT P6SM SHRA VCTS OVC040CB
     FM272100 VRB03KT P6SM +SHRA VCTS OVC025CB
     FM280200 VRB03KT P6SM OVC025
     FM280600 VRB03KT 3SM SHRA BR OVC025=

USA.gov is the U.S. government's official web portal to all federal, state and local government web resources and services.